sensor_id;sensor_type;location;lat;lon;timestamp;temperature;humidity
8939;DHT22;4504;48.810;9.172;2023-04-03T00:02:06;5.60;99.90
8939;DHT22;4504;48.810;9.172;2023-04-03T00:04:33;5.60;99.90
8939;DHT22;4504;48.810;9.172;2023-04-03T00:07:00;5.60;99.90
8939;DHT22;4504;48.810;9.172;2023-04-03T00:09:28;5.60;99.90
8939;DHT22;4504;48.810;9.172;2023-04-03T00:11:55;5.60;99.90
8939;DHT22;4504;48.810;9.172;2023-04-03T00:14:22;5.60;99.90
8939;DHT22;4504;48.810;9.172;2023-04-03T00:16:49;5.60;99.90
8939;DHT22;4504;48.810;9.172;2023-04-03T00:19:16;5.60;99.90
8939;DHT22;4504;48.810;9.172;2023-04-03T00:21:43;5.60;99.90
8939;DHT22;4504;48.810;9.172;2023-04-03T00:24:10;5.60;99.90
8939;DHT22;4504;48.810;9.172;2023-04-03T00:26:38;5.60;99.90
8939;DHT22;4504;48.810;9.172;2023-04-03T00:29:05;5.60;99.90
8939;DHT22;4504;48.810;9.172;2023-04-03T00:31:32;5.60;99.90
8939;DHT22;4504;48.810;9.172;2023-04-03T00:33:59;5.60;99.90
8939;DHT22;4504;48.810;9.172;2023-04-03T00:36:26;5.60;99.90
8939;DHT22;4504;48.810;9.172;2023-04-03T00:38:53;5.50;99.90
8939;DHT22;4504;48.810;9.172;2023-04-03T00:41:21;5.60;99.90
8939;DHT22;4504;48.810;9.172;2023-04-03T00:43:49;5.60;99.90
8939;DHT22;4504;48.810;9.172;2023-04-03T00:46:16;5.60;99.90
8939;DHT22;4504;48.810;9.172;2023-04-03T00:48:45;5.60;99.90
8939;DHT22;4504;48.810;9.172;2023-04-03T00:51:14;5.60;99.90
8939;DHT22;4504;48.810;9.172;2023-04-03T00:53:46;5.70;99.90
8939;DHT22;4504;48.810;9.172;2023-04-03T00:56:16;5.60;99.90
8939;DHT22;4504;48.810;9.172;2023-04-03T00:58:48;5.50;99.90
8939;DHT22;4504;48.810;9.172;2023-04-03T01:01:20;5.50;99.90
8939;DHT22;4504;48.810;9.172;2023-04-03T01:03:48;5.60;99.90
8939;DHT22;4504;48.810;9.172;2023-04-03T01:06:17;5.40;99.90
8939;DHT22;4504;48.810;9.172;2023-04-03T01:08:48;5.40;99.90
8939;DHT22;4504;48.810;9.172;2023-04-03T01:11:16;5.40;99.90
8939;DHT22;4504;48.810;9.172;2023-04-03T01:13:44;5.40;99.90
8939;DHT22;4504;48.810;9.172;2023-04-03T01:16:12;5.40;99.90
8939;DHT22;4504;48.810;9.172;2023-04-03T01:18:39;5.40;99.90
8939;DHT22;4504;48.810;9.172;2023-04-03T01:21:48;5.40;99.90
8939;DHT22;4504;48.810;9.172;2023-04-03T01:24:30;5.40;99.90
8939;DHT22;4504;48.810;9.172;2023-04-03T01:26:58;5.40;99.90
8939;DHT22;4504;48.810;9.172;2023-04-03T01:29:25;5.40;99.90
8939;DHT22;4504;48.810;9.172;2023-04-03T01:31:55;5.40;99.90
8939;DHT22;4504;48.810;9.172;2023-04-03T01:34:24;5.40;99.90
8939;DHT22;4504;48.810;9.172;2023-04-03T01:36:51;5.50;99.90
8939;DHT22;4504;48.810;9.172;2023-04-03T01:39:20;5.40;99.90
8939;DHT22;4504;48.810;9.172;2023-04-03T01:41:48;5.50;99.90
8939;DHT22;4504;48.810;9.172;2023-04-03T01:44:27;5.40;99.90
8939;DHT22;4504;48.810;9.172;2023-04-03T01:46:55;5.60;99.90
8939;DHT22;4504;48.810;9.172;2023-04-03T01:49:24;5.50;99.90
8939;DHT22;4504;48.810;9.172;2023-04-03T01:51:51;5.50;99.90
8939;DHT22;4504;48.810;9.172;2023-04-03T01:54:18;5.50;99.90
8939;DHT22;4504;48.810;9.172;2023-04-03T01:56:45;5.60;99.90
8939;DHT22;4504;48.810;9.172;2023-04-03T01:59:12;5.40;99.90
8939;DHT22;4504;48.810;9.172;2023-04-03T02:01:43;5.50;99.90
8939;DHT22;4504;48.810;9.172;2023-04-03T02:04:12;5.50;99.90
8939;DHT22;4504;48.810;9.172;2023-04-03T02:06:40;5.30;99.90
8939;DHT22;4504;48.810;9.172;2023-04-03T02:09:07;5.30;99.90
8939;DHT22;4504;48.810;9.172;2023-04-03T02:11:34;5.20;99.90
8939;DHT22;4504;48.810;9.172;2023-04-03T02:14:01;5.20;99.90
8939;DHT22;4504;48.810;9.172;2023-04-03T02:16:28;5.20;99.90
8939;DHT22;4504;48.810;9.172;2023-04-03T02:18:56;5.20;99.90
8939;DHT22;4504;48.810;9.172;2023-04-03T02:21:25;5.20;99.90
8939;DHT22;4504;48.810;9.172;2023-04-03T02:23:53;5.20;99.90
8939;DHT22;4504;48.810;9.172;2023-04-03T02:26:20;5.20;99.90
8939;DHT22;4504;48.810;9.172;2023-04-03T02:28:47;5.20;99.90
8939;DHT22;4504;48.810;9.172;2023-04-03T02:31:14;5.20;99.90
8939;DHT22;4504;48.810;9.172;2023-04-03T02:33:43;5.20;99.90
8939;DHT22;4504;48.810;9.172;2023-04-03T02:36:13;5.20;99.90
8939;DHT22;4504;48.810;9.172;2023-04-03T02:38:44;5.20;99.90
8939;DHT22;4504;48.810;9.172;2023-04-03T02:41:12;5.20;99.90
8939;DHT22;4504;48.810;9.172;2023-04-03T02:43:39;5.30;99.90
8939;DHT22;4504;48.810;9.172;2023-04-03T02:46:07;5.20;99.90
8939;DHT22;4504;48.810;9.172;2023-04-03T02:48:34;5.20;99.90
8939;DHT22;4504;48.810;9.172;2023-04-03T02:51:01;5.20;99.90
8939;DHT22;4504;48.810;9.172;2023-04-03T02:53:28;5.20;99.90
8939;DHT22;4504;48.810;9.172;2023-04-03T02:55:56;5.20;99.90
8939;DHT22;4504;48.810;9.172;2023-04-03T02:58:23;5.10;99.90
8939;DHT22;4504;48.810;9.172;2023-04-03T03:00:53;5.20;99.90
8939;DHT22;4504;48.810;9.172;2023-04-03T03:03:20;5.10;99.90
8939;DHT22;4504;48.810;9.172;2023-04-03T03:05:47;5.10;99.90
8939;DHT22;4504;48.810;9.172;2023-04-03T03:08:14;5.10;99.90
8939;DHT22;4504;48.810;9.172;2023-04-03T03:10:41;5.10;99.90
8939;DHT22;4504;48.810;9.172;2023-04-03T03:13:10;5.10;99.90
8939;DHT22;4504;48.810;9.172;2023-04-03T03:15:37;5.10;99.90
8939;DHT22;4504;48.810;9.172;2023-04-03T03:18:04;5.10;99.90
8939;DHT22;4504;48.810;9.172;2023-04-03T03:20:31;5.10;99.90
8939;DHT22;4504;48.810;9.172;2023-04-03T03:22:58;5.10;99.90
8939;DHT22;4504;48.810;9.172;2023-04-03T03:25:25;5.10;99.90
8939;DHT22;4504;48.810;9.172;2023-04-03T03:27:52;5.10;99.90
8939;DHT22;4504;48.810;9.172;2023-04-03T03:30:21;5.10;99.90
8939;DHT22;4504;48.810;9.172;2023-04-03T03:32:48;5.10;99.90
8939;DHT22;4504;48.810;9.172;2023-04-03T03:35:15;5.10;99.90
8939;DHT22;4504;48.810;9.172;2023-04-03T03:37:42;5.10;99.90
8939;DHT22;4504;48.810;9.172;2023-04-03T03:40:10;5.20;99.90
8939;DHT22;4504;48.810;9.172;2023-04-03T03:42:38;5.20;99.90
8939;DHT22;4504;48.810;9.172;2023-04-03T03:45:06;5.20;99.90
8939;DHT22;4504;48.810;9.172;2023-04-03T03:47:36;5.20;99.90
8939;DHT22;4504;48.810;9.172;2023-04-03T03:50:03;5.20;99.90
8939;DHT22;4504;48.810;9.172;2023-04-03T03:52:30;5.20;99.90
8939;DHT22;4504;48.810;9.172;2023-04-03T03:54:57;5.30;99.90
8939;DHT22;4504;48.810;9.172;2023-04-03T03:57:24;5.20;99.90
8939;DHT22;4504;48.810;9.172;2023-04-03T03:59:54;5.30;99.90
8939;DHT22;4504;48.810;9.172;2023-04-03T04:02:21;5.20;99.90
8939;DHT22;4504;48.810;9.172;2023-04-03T04:04:49;5.30;99.90
8939;DHT22;4504;48.810;9.172;2023-04-03T04:07:16;5.30;99.90
8939;DHT22;4504;48.810;9.172;2023-04-03T04:09:43;5.30;99.90
8939;DHT22;4504;48.810;9.172;2023-04-03T04:12:11;5.30;99.90
8939;DHT22;4504;48.810;9.172;2023-04-03T04:14:38;5.30;99.90
8939;DHT22;4504;48.810;9.172;2023-04-03T04:17:07;5.30;99.90
8939;DHT22;4504;48.810;9.172;2023-04-03T04:19:36;5.30;99.90
8939;DHT22;4504;48.810;9.172;2023-04-03T04:22:05;5.40;99.90
8939;DHT22;4504;48.810;9.172;2023-04-03T04:24:32;5.40;99.90
8939;DHT22;4504;48.810;9.172;2023-04-03T04:27:01;5.40;99.90
8939;DHT22;4504;48.810;9.172;2023-04-03T04:29:29;5.50;99.90
8939;DHT22;4504;48.810;9.172;2023-04-03T04:32:00;5.40;99.90
8939;DHT22;4504;48.810;9.172;2023-04-03T04:34:28;5.40;99.90
8939;DHT22;4504;48.810;9.172;2023-04-03T04:36:55;5.40;99.90
8939;DHT22;4504;48.810;9.172;2023-04-03T04:39:24;5.40;99.90
8939;DHT22;4504;48.810;9.172;2023-04-03T04:41:52;5.40;99.90
8939;DHT22;4504;48.810;9.172;2023-04-03T04:44:19;5.40;99.90
8939;DHT22;4504;48.810;9.172;2023-04-03T04:46:46;5.40;99.90
8939;DHT22;4504;48.810;9.172;2023-04-03T04:49:13;5.50;99.90
8939;DHT22;4504;48.810;9.172;2023-04-03T04:51:40;5.40;99.90
8939;DHT22;4504;48.810;9.172;2023-04-03T04:54:08;5.40;99.90
8939;DHT22;4504;48.810;9.172;2023-04-03T04:56:38;5.50;99.90
8939;DHT22;4504;48.810;9.172;2023-04-03T04:59:05;5.50;99.90
8939;DHT22;4504;48.810;9.172;2023-04-03T05:01:32;5.50;99.90
8939;DHT22;4504;48.810;9.172;2023-04-03T05:04:06;5.40;99.90
8939;DHT22;4504;48.810;9.172;2023-04-03T05:06:33;5.50;99.90
8939;DHT22;4504;48.810;9.172;2023-04-03T05:09:03;5.40;99.90
8939;DHT22;4504;48.810;9.172;2023-04-03T05:11:31;5.40;99.90
8939;DHT22;4504;48.810;9.172;2023-04-03T05:14:00;5.40;99.90
8939;DHT22;4504;48.810;9.172;2023-04-03T05:16:28;5.40;99.90
8939;DHT22;4504;48.810;9.172;2023-04-03T05:18:55;5.40;99.90
8939;DHT22;4504;48.810;9.172;2023-04-03T05:21:22;5.40;99.90
8939;DHT22;4504;48.810;9.172;2023-04-03T05:23:52;5.40;99.90
8939;DHT22;4504;48.810;9.172;2023-04-03T05:26:19;5.40;99.90
8939;DHT22;4504;48.810;9.172;2023-04-03T05:28:48;5.30;99.90
8939;DHT22;4504;48.810;9.172;2023-04-03T05:31:16;5.30;99.90
8939;DHT22;4504;48.810;9.172;2023-04-03T05:33:43;5.20;99.90
8939;DHT22;4504;48.810;9.172;2023-04-03T05:36:15;5.20;99.90
8939;DHT22;4504;48.810;9.172;2023-04-03T05:38:46;5.20;99.90
8939;DHT22;4504;48.810;9.172;2023-04-03T05:41:14;5.20;99.90
8939;DHT22;4504;48.810;9.172;2023-04-03T05:43:43;5.20;99.90
8939;DHT22;4504;48.810;9.172;2023-04-03T05:46:11;5.20;99.90
8939;DHT22;4504;48.810;9.172;2023-04-03T05:48:41;5.30;99.90
8939;DHT22;4504;48.810;9.172;2023-04-03T05:51:15;5.20;99.90
8939;DHT22;4504;48.810;9.172;2023-04-03T05:53:43;5.10;99.90
8939;DHT22;4504;48.810;9.172;2023-04-03T05:56:11;5.20;99.90
8939;DHT22;4504;48.810;9.172;2023-04-03T05:58:39;5.20;99.90
8939;DHT22;4504;48.810;9.172;2023-04-03T06:01:06;5.20;99.90
8939;DHT22;4504;48.810;9.172;2023-04-03T06:03:34;5.20;99.90
8939;DHT22;4504;48.810;9.172;2023-04-03T06:06:04;5.20;99.90
8939;DHT22;4504;48.810;9.172;2023-04-03T06:08:31;5.20;99.90
8939;DHT22;4504;48.810;9.172;2023-04-03T06:10:59;5.20;99.90
8939;DHT22;4504;48.810;9.172;2023-04-03T06:13:27;5.20;99.90
8939;DHT22;4504;48.810;9.172;2023-04-03T06:15:55;5.20;99.90
8939;DHT22;4504;48.810;9.172;2023-04-03T06:18:22;5.20;99.90
8939;DHT22;4504;48.810;9.172;2023-04-03T06:20:52;5.20;99.90
8939;DHT22;4504;48.810;9.172;2023-04-03T06:23:20;5.20;99.90
8939;DHT22;4504;48.810;9.172;2023-04-03T06:25:48;5.20;99.90
8939;DHT22;4504;48.810;9.172;2023-04-03T06:28:14;5.40;99.90
8939;DHT22;4504;48.810;9.172;2023-04-03T06:30:41;5.30;99.90
8939;DHT22;4504;48.810;9.172;2023-04-03T06:33:08;5.30;99.90
8939;DHT22;4504;48.810;9.172;2023-04-03T06:35:36;5.30;99.90
8939;DHT22;4504;48.810;9.172;2023-04-03T06:38:04;5.30;99.90
8939;DHT22;4504;48.810;9.172;2023-04-03T06:40:36;5.40;99.90
8939;DHT22;4504;48.810;9.172;2023-04-03T06:43:03;5.40;99.90
8939;DHT22;4504;48.810;9.172;2023-04-03T06:45:31;5.40;99.90
8939;DHT22;4504;48.810;9.172;2023-04-03T06:47:58;5.30;99.90
8939;DHT22;4504;48.810;9.172;2023-04-03T06:50:25;5.40;99.90
8939;DHT22;4504;48.810;9.172;2023-04-03T06:52:52;5.30;99.90
8939;DHT22;4504;48.810;9.172;2023-04-03T06:55:19;5.30;99.90
8939;DHT22;4504;48.810;9.172;2023-04-03T06:57:48;5.20;99.90
8939;DHT22;4504;48.810;9.172;2023-04-03T07:00:17;5.20;99.90
8939;DHT22;4504;48.810;9.172;2023-04-03T07:02:44;5.20;99.90
8939;DHT22;4504;48.810;9.172;2023-04-03T07:05:11;5.20;99.90
8939;DHT22;4504;48.810;9.172;2023-04-03T07:07:38;5.20;99.90
8939;DHT22;4504;48.810;9.172;2023-04-03T07:10:07;5.20;99.90
8939;DHT22;4504;48.810;9.172;2023-04-03T07:12:35;5.20;99.90
8939;DHT22;4504;48.810;9.172;2023-04-03T07:15:04;5.20;99.90
8939;DHT22;4504;48.810;9.172;2023-04-03T07:17:31;5.30;99.90
8939;DHT22;4504;48.810;9.172;2023-04-03T07:19:58;5.40;99.90
8939;DHT22;4504;48.810;9.172;2023-04-03T07:22:31;5.40;99.90
8939;DHT22;4504;48.810;9.172;2023-04-03T07:24:58;5.40;99.90
8939;DHT22;4504;48.810;9.172;2023-04-03T07:27:25;5.50;99.90
8939;DHT22;4504;48.810;9.172;2023-04-03T07:29:52;5.50;99.90
8939;DHT22;4504;48.810;9.172;2023-04-03T07:32:22;5.50;99.90
8939;DHT22;4504;48.810;9.172;2023-04-03T07:34:49;5.60;99.90
8939;DHT22;4504;48.810;9.172;2023-04-03T07:37:17;5.50;99.90
8939;DHT22;4504;48.810;9.172;2023-04-03T07:39:44;5.50;99.90
8939;DHT22;4504;48.810;9.172;2023-04-03T07:42:11;5.60;99.90
8939;DHT22;4504;48.810;9.172;2023-04-03T07:44:38;5.60;99.90
8939;DHT22;4504;48.810;9.172;2023-04-03T07:47:06;5.70;99.90
8939;DHT22;4504;48.810;9.172;2023-04-03T07:49:34;5.60;99.90
8939;DHT22;4504;48.810;9.172;2023-04-03T07:52:03;5.70;99.90
8939;DHT22;4504;48.810;9.172;2023-04-03T07:54:31;5.70;99.90
8939;DHT22;4504;48.810;9.172;2023-04-03T07:56:57;5.70;99.90
8939;DHT22;4504;48.810;9.172;2023-04-03T07:59:24;5.70;99.90
8939;DHT22;4504;48.810;9.172;2023-04-03T08:01:51;5.70;99.90
8939;DHT22;4504;48.810;9.172;2023-04-03T08:04:18;5.70;99.90
8939;DHT22;4504;48.810;9.172;2023-04-03T08:06:46;5.70;99.90
8939;DHT22;4504;48.810;9.172;2023-04-03T08:09:14;5.70;99.90
8939;DHT22;4504;48.810;9.172;2023-04-03T08:11:42;5.70;99.90
8939;DHT22;4504;48.810;9.172;2023-04-03T08:14:09;5.70;99.90
8939;DHT22;4504;48.810;9.172;2023-04-03T08:16:41;5.80;99.90
8939;DHT22;4504;48.810;9.172;2023-04-03T08:19:08;5.90;99.90
8939;DHT22;4504;48.810;9.172;2023-04-03T08:21:36;5.90;99.90
8939;DHT22;4504;48.810;9.172;2023-04-03T08:24:05;6.00;99.90
8939;DHT22;4504;48.810;9.172;2023-04-03T08:26:32;6.00;99.90
8939;DHT22;4504;48.810;9.172;2023-04-03T08:28:59;6.00;99.90
8939;DHT22;4504;48.810;9.172;2023-04-03T08:31:26;6.00;99.90
8939;DHT22;4504;48.810;9.172;2023-04-03T08:33:53;6.00;99.90
8939;DHT22;4504;48.810;9.172;2023-04-03T08:36:21;6.10;99.90
8939;DHT22;4504;48.810;9.172;2023-04-03T08:38:49;6.10;99.90
8939;DHT22;4504;48.810;9.172;2023-04-03T08:41:26;6.10;99.90
8939;DHT22;4504;48.810;9.172;2023-04-03T08:44:02;6.20;99.90
8939;DHT22;4504;48.810;9.172;2023-04-03T08:46:42;6.40;99.90
8939;DHT22;4504;48.810;9.172;2023-04-03T08:49:21;6.30;99.90
8939;DHT22;4504;48.810;9.172;2023-04-03T08:51:50;6.30;99.90
8939;DHT22;4504;48.810;9.172;2023-04-03T08:54:28;6.20;99.90
8939;DHT22;4504;48.810;9.172;2023-04-03T08:57:00;6.20;99.90
8939;DHT22;4504;48.810;9.172;2023-04-03T08:59:32;6.20;99.90
8939;DHT22;4504;48.810;9.172;2023-04-03T09:02:02;6.30;99.90
8939;DHT22;4504;48.810;9.172;2023-04-03T09:04:32;6.20;99.90
8939;DHT22;4504;48.810;9.172;2023-04-03T09:07:06;6.20;99.90
8939;DHT22;4504;48.810;9.172;2023-04-03T09:09:36;6.20;99.90
8939;DHT22;4504;48.810;9.172;2023-04-03T09:12:13;6.20;99.90
8939;DHT22;4504;48.810;9.172;2023-04-03T09:14:45;6.20;99.90
8939;DHT22;4504;48.810;9.172;2023-04-03T09:17:21;6.20;99.90
8939;DHT22;4504;48.810;9.172;2023-04-03T09:19:56;6.20;99.90
8939;DHT22;4504;48.810;9.172;2023-04-03T09:22:26;6.30;99.90
8939;DHT22;4504;48.810;9.172;2023-04-03T09:24:58;6.20;99.90
8939;DHT22;4504;48.810;9.172;2023-04-03T09:27:28;6.30;99.90
8939;DHT22;4504;48.810;9.172;2023-04-03T09:29:56;6.30;99.90
8939;DHT22;4504;48.810;9.172;2023-04-03T09:32:27;6.30;99.90
8939;DHT22;4504;48.810;9.172;2023-04-03T09:34:58;6.30;99.90
8939;DHT22;4504;48.810;9.172;2023-04-03T09:37:44;6.30;99.90
8939;DHT22;4504;48.810;9.172;2023-04-03T09:40:36;6.30;99.90
8939;DHT22;4504;48.810;9.172;2023-04-03T09:46:23;6.30;99.90
8939;DHT22;4504;48.810;9.172;2023-04-03T09:48:52;6.40;99.90
8939;DHT22;4504;48.810;9.172;2023-04-03T09:51:25;6.50;99.90
8939;DHT22;4504;48.810;9.172;2023-04-03T09:53:53;6.50;99.90
8939;DHT22;4504;48.810;9.172;2023-04-03T09:56:22;6.50;99.30
8939;DHT22;4504;48.810;9.172;2023-04-03T09:59:01;6.60;98.90
8939;DHT22;4504;48.810;9.172;2023-04-03T10:01:35;6.60;99.10
8939;DHT22;4504;48.810;9.172;2023-04-03T10:04:05;6.60;99.20
8939;DHT22;4504;48.810;9.172;2023-04-03T10:06:34;6.70;98.90
8939;DHT22;4504;48.810;9.172;2023-04-03T10:09:04;6.70;98.80
8939;DHT22;4504;48.810;9.172;2023-04-03T10:11:31;6.80;98.60
8939;DHT22;4504;48.810;9.172;2023-04-03T10:14:00;6.70;98.50
8939;DHT22;4504;48.810;9.172;2023-04-03T10:16:34;6.80;98.80
8939;DHT22;4504;48.810;9.172;2023-04-03T10:19:12;6.80;98.50
8939;DHT22;4504;48.810;9.172;2023-04-03T10:21:44;6.80;98.60
8939;DHT22;4504;48.810;9.172;2023-04-03T10:24:16;6.80;98.60
8939;DHT22;4504;48.810;9.172;2023-04-03T10:26:50;6.80;98.60
8939;DHT22;4504;48.810;9.172;2023-04-03T10:29:27;6.80;98.40
8939;DHT22;4504;48.810;9.172;2023-04-03T10:32:09;6.80;98.40
8939;DHT22;4504;48.810;9.172;2023-04-03T10:34:42;6.80;98.20
8939;DHT22;4504;48.810;9.172;2023-04-03T10:37:13;6.80;98.30
8939;DHT22;4504;48.810;9.172;2023-04-03T10:39:51;6.70;98.50
8939;DHT22;4504;48.810;9.172;2023-04-03T10:42:26;6.70;98.80
8939;DHT22;4504;48.810;9.172;2023-04-03T10:45:10;6.70;98.60
8939;DHT22;4504;48.810;9.172;2023-04-03T10:47:48;6.70;98.90
8939;DHT22;4504;48.810;9.172;2023-04-03T10:50:30;6.70;98.80
8939;DHT22;4504;48.810;9.172;2023-04-03T10:53:03;6.70;98.80
8939;DHT22;4504;48.810;9.172;2023-04-03T10:55:36;6.80;98.70
8939;DHT22;4504;48.810;9.172;2023-04-03T10:58:06;6.80;98.50
8939;DHT22;4504;48.810;9.172;2023-04-03T11:00:39;6.80;97.80
8939;DHT22;4504;48.810;9.172;2023-04-03T11:03:13;6.80;97.20
8939;DHT22;4504;48.810;9.172;2023-04-03T11:05:44;6.90;96.60
8939;DHT22;4504;48.810;9.172;2023-04-03T11:08:18;6.90;96.40
8939;DHT22;4504;48.810;9.172;2023-04-03T11:10:49;6.90;97.00
8939;DHT22;4504;48.810;9.172;2023-04-03T11:13:20;6.90;96.10
8939;DHT22;4504;48.810;9.172;2023-04-03T11:15:49;7.00;96.10
8939;DHT22;4504;48.810;9.172;2023-04-03T11:18:22;7.00;95.70
8939;DHT22;4504;48.810;9.172;2023-04-03T11:20:59;7.00;94.40
8939;DHT22;4504;48.810;9.172;2023-04-03T11:23:30;7.00;94.80
8939;DHT22;4504;48.810;9.172;2023-04-03T11:26:07;7.00;94.70
8939;DHT22;4504;48.810;9.172;2023-04-03T11:28:36;7.00;94.50
8939;DHT22;4504;48.810;9.172;2023-04-03T11:31:16;7.00;94.10
8939;DHT22;4504;48.810;9.172;2023-04-03T11:33:51;7.00;94.20
8939;DHT22;4504;48.810;9.172;2023-04-03T11:36:23;7.00;94.40
8939;DHT22;4504;48.810;9.172;2023-04-03T11:38:53;7.00;94.80
8939;DHT22;4504;48.810;9.172;2023-04-03T11:41:26;7.00;94.90
8939;DHT22;4504;48.810;9.172;2023-04-03T11:43:59;7.00;95.10
8939;DHT22;4504;48.810;9.172;2023-04-03T11:46:49;7.00;94.90
8939;DHT22;4504;48.810;9.172;2023-04-03T11:49:52;6.90;95.10
8939;DHT22;4504;48.810;9.172;2023-04-03T11:55:41;6.90;94.80
8939;DHT22;4504;48.810;9.172;2023-04-03T11:58:14;6.90;94.70
8939;DHT22;4504;48.810;9.172;2023-04-03T12:01:08;7.00;94.80
8939;DHT22;4504;48.810;9.172;2023-04-03T12:03:57;7.00;94.60
8939;DHT22;4504;48.810;9.172;2023-04-03T12:09:29;7.10;94.30
8939;DHT22;4504;48.810;9.172;2023-04-03T12:12:00;7.20;94.30
8939;DHT22;4504;48.810;9.172;2023-04-03T12:14:28;7.20;94.30
8939;DHT22;4504;48.810;9.172;2023-04-03T12:16:56;7.30;94.40
8939;DHT22;4504;48.810;9.172;2023-04-03T12:19:36;7.40;93.80
8939;DHT22;4504;48.810;9.172;2023-04-03T12:22:12;7.30;93.90
8939;DHT22;4504;48.810;9.172;2023-04-03T12:24:42;7.30;93.40
8939;DHT22;4504;48.810;9.172;2023-04-03T12:27:22;7.30;93.40
8939;DHT22;4504;48.810;9.172;2023-04-03T12:29:58;7.30;93.50
8939;DHT22;4504;48.810;9.172;2023-04-03T12:32:40;7.40;93.20
8939;DHT22;4504;48.810;9.172;2023-04-03T12:35:19;7.40;92.30
8939;DHT22;4504;48.810;9.172;2023-04-03T12:38:15;7.40;92.60
8939;DHT22;4504;48.810;9.172;2023-04-03T12:40:50;7.30;92.30
8939;DHT22;4504;48.810;9.172;2023-04-03T12:46:12;7.40;92.50
8939;DHT22;4504;48.810;9.172;2023-04-03T12:48:48;7.40;92.70
8939;DHT22;4504;48.810;9.172;2023-04-03T12:51:19;7.40;92.60
8939;DHT22;4504;48.810;9.172;2023-04-03T12:53:49;7.40;92.30
8939;DHT22;4504;48.810;9.172;2023-04-03T12:56:24;7.30;92.10
8939;DHT22;4504;48.810;9.172;2023-04-03T12:58:54;7.30;92.30
8939;DHT22;4504;48.810;9.172;2023-04-03T13:01:23;7.20;92.60
8939;DHT22;4504;48.810;9.172;2023-04-03T13:03:52;7.30;92.80
8939;DHT22;4504;48.810;9.172;2023-04-03T13:06:22;7.30;92.70
8939;DHT22;4504;48.810;9.172;2023-04-03T13:08:50;7.40;92.70
8939;DHT22;4504;48.810;9.172;2023-04-03T13:11:19;7.40;92.60
8939;DHT22;4504;48.810;9.172;2023-04-03T13:13:56;7.40;92.30
8939;DHT22;4504;48.810;9.172;2023-04-03T13:16:23;7.40;91.80
8939;DHT22;4504;48.810;9.172;2023-04-03T13:18:52;7.40;91.30
8939;DHT22;4504;48.810;9.172;2023-04-03T13:21:22;7.50;91.70
8939;DHT22;4504;48.810;9.172;2023-04-03T13:23:53;7.50;92.00
8939;DHT22;4504;48.810;9.172;2023-04-03T13:26:24;7.60;91.90
8939;DHT22;4504;48.810;9.172;2023-04-03T13:28:52;7.60;92.00
8939;DHT22;4504;48.810;9.172;2023-04-03T13:31:23;7.50;91.60
8939;DHT22;4504;48.810;9.172;2023-04-03T13:33:57;7.50;91.30
8939;DHT22;4504;48.810;9.172;2023-04-03T13:36:27;7.40;91.40
8939;DHT22;4504;48.810;9.172;2023-04-03T13:39:02;7.50;91.30
8939;DHT22;4504;48.810;9.172;2023-04-03T13:41:30;7.50;91.50
8939;DHT22;4504;48.810;9.172;2023-04-03T13:44:26;7.60;90.50
8939;DHT22;4504;48.810;9.172;2023-04-03T13:46:58;7.60;90.30
8939;DHT22;4504;48.810;9.172;2023-04-03T13:49:32;7.60;90.50
8939;DHT22;4504;48.810;9.172;2023-04-03T13:52:00;7.70;90.10
8939;DHT22;4504;48.810;9.172;2023-04-03T13:54:31;7.70;88.50
8939;DHT22;4504;48.810;9.172;2023-04-03T13:56:59;7.80;87.30
8939;DHT22;4504;48.810;9.172;2023-04-03T13:59:29;7.80;87.20
8939;DHT22;4504;48.810;9.172;2023-04-03T14:02:13;7.80;87.40
8939;DHT22;4504;48.810;9.172;2023-04-03T14:04:50;7.80;87.40
8939;DHT22;4504;48.810;9.172;2023-04-03T14:07:19;7.70;87.80
8939;DHT22;4504;48.810;9.172;2023-04-03T14:09:47;7.70;88.70
8939;DHT22;4504;48.810;9.172;2023-04-03T14:12:17;7.70;89.60
8939;DHT22;4504;48.810;9.172;2023-04-03T14:14:45;7.70;89.30
8939;DHT22;4504;48.810;9.172;2023-04-03T14:17:16;7.80;90.00
8939;DHT22;4504;48.810;9.172;2023-04-03T14:19:43;7.80;89.70
8939;DHT22;4504;48.810;9.172;2023-04-03T14:22:15;7.80;90.00
8939;DHT22;4504;48.810;9.172;2023-04-03T14:24:43;7.80;89.50
8939;DHT22;4504;48.810;9.172;2023-04-03T14:27:18;7.80;88.00
8939;DHT22;4504;48.810;9.172;2023-04-03T14:29:45;7.80;87.20
8939;DHT22;4504;48.810;9.172;2023-04-03T14:32:15;7.90;87.40
8939;DHT22;4504;48.810;9.172;2023-04-03T14:34:43;8.00;87.30
8939;DHT22;4504;48.810;9.172;2023-04-03T14:37:11;7.90;86.10
8939;DHT22;4504;48.810;9.172;2023-04-03T14:39:40;8.00;86.40
8939;DHT22;4504;48.810;9.172;2023-04-03T14:42:11;8.00;86.20
8939;DHT22;4504;48.810;9.172;2023-04-03T14:44:39;8.00;85.90
8939;DHT22;4504;48.810;9.172;2023-04-03T14:47:10;8.10;87.00
8939;DHT22;4504;48.810;9.172;2023-04-03T14:49:39;8.30;86.00
8939;DHT22;4504;48.810;9.172;2023-04-03T14:52:06;8.50;84.20
8939;DHT22;4504;48.810;9.172;2023-04-03T14:54:33;8.60;82.10
8939;DHT22;4504;48.810;9.172;2023-04-03T14:57:01;8.60;81.60
8939;DHT22;4504;48.810;9.172;2023-04-03T14:59:29;8.50;82.40
8939;DHT22;4504;48.810;9.172;2023-04-03T15:01:57;8.40;82.50
8939;DHT22;4504;48.810;9.172;2023-04-03T15:04:24;8.30;80.90
8939;DHT22;4504;48.810;9.172;2023-04-03T15:06:53;8.20;82.20
8939;DHT22;4504;48.810;9.172;2023-04-03T15:09:22;8.20;81.70
8939;DHT22;4504;48.810;9.172;2023-04-03T15:11:50;8.10;81.00
8939;DHT22;4504;48.810;9.172;2023-04-03T15:14:17;8.10;82.30
8939;DHT22;4504;48.810;9.172;2023-04-03T15:16:44;8.10;82.20
8939;DHT22;4504;48.810;9.172;2023-04-03T15:19:12;8.10;81.50
8939;DHT22;4504;48.810;9.172;2023-04-03T15:21:39;8.10;81.30
8939;DHT22;4504;48.810;9.172;2023-04-03T15:24:09;8.00;81.40
8939;DHT22;4504;48.810;9.172;2023-04-03T15:26:36;8.10;81.70
8939;DHT22;4504;48.810;9.172;2023-04-03T15:29:03;8.10;81.60
8939;DHT22;4504;48.810;9.172;2023-04-03T15:31:31;8.20;81.20
8939;DHT22;4504;48.810;9.172;2023-04-03T15:33:59;8.20;80.00
8939;DHT22;4504;48.810;9.172;2023-04-03T15:36:26;8.20;79.40
8939;DHT22;4504;48.810;9.172;2023-04-03T15:38:53;8.20;79.70
8939;DHT22;4504;48.810;9.172;2023-04-03T15:41:21;8.20;80.30
8939;DHT22;4504;48.810;9.172;2023-04-03T15:43:48;8.20;81.00
8939;DHT22;4504;48.810;9.172;2023-04-03T15:46:15;8.30;80.40
8939;DHT22;4504;48.810;9.172;2023-04-03T15:48:42;8.50;78.90
8939;DHT22;4504;48.810;9.172;2023-04-03T15:51:10;8.80;77.20
8939;DHT22;4504;48.810;9.172;2023-04-03T15:53:37;8.70;76.00
8939;DHT22;4504;48.810;9.172;2023-04-03T15:56:04;8.50;75.50
8939;DHT22;4504;48.810;9.172;2023-04-03T15:58:35;8.50;76.10
8939;DHT22;4504;48.810;9.172;2023-04-03T16:01:02;8.50;75.40
8939;DHT22;4504;48.810;9.172;2023-04-03T16:03:29;8.60;75.00
8939;DHT22;4504;48.810;9.172;2023-04-03T16:05:57;8.60;75.60
8939;DHT22;4504;48.810;9.172;2023-04-03T16:08:24;8.60;75.90
8939;DHT22;4504;48.810;9.172;2023-04-03T16:10:51;8.60;75.60
8939;DHT22;4504;48.810;9.172;2023-04-03T16:13:18;8.60;74.80
8939;DHT22;4504;48.810;9.172;2023-04-03T16:15:46;8.60;75.70
8939;DHT22;4504;48.810;9.172;2023-04-03T16:18:14;8.70;76.20
8939;DHT22;4504;48.810;9.172;2023-04-03T16:20:42;8.70;76.80
8939;DHT22;4504;48.810;9.172;2023-04-03T16:23:09;8.70;76.10
8939;DHT22;4504;48.810;9.172;2023-04-03T16:25:36;8.60;75.50
8939;DHT22;4504;48.810;9.172;2023-04-03T16:28:03;8.50;75.60
8939;DHT22;4504;48.810;9.172;2023-04-03T16:30:30;8.30;74.70
8939;DHT22;4504;48.810;9.172;2023-04-03T16:32:59;8.30;75.70
8939;DHT22;4504;48.810;9.172;2023-04-03T16:35:26;8.10;77.30
8939;DHT22;4504;48.810;9.172;2023-04-03T16:37:53;8.10;77.50
8939;DHT22;4504;48.810;9.172;2023-04-03T16:40:20;8.00;78.70
8939;DHT22;4504;48.810;9.172;2023-04-03T16:42:46;8.40;78.90
8939;DHT22;4504;48.810;9.172;2023-04-03T16:45:14;8.60;77.50
8939;DHT22;4504;48.810;9.172;2023-04-03T16:47:41;8.70;76.20